KM5HG-3 Weather Reports


Display with metric or nautical units.
time (UTC)temp
F
wind
direction
speed
MPH
gust
MPH
rain 1hr
in
rain 24hr
in
rain mn
in
humidity
%
barometer
mb
20200220072813 44 3 14.0 19.0 0.00 0.00 0.00
20200220072313 44 1 15.0 20.0 0.00 0.00 0.00
20200220071813 44 0 12.0 17.0 0.00 0.00 0.00
20200220071313 44 350 13.0 21.0 0.00 0.00 0.00
20200220070813 44 4 11.0 16.0 0.00 0.00 0.00
20200220070313 44 3 11.0 16.0 0.00 0.00 0.00
20200220065813 44 7 13.0 20.0 0.00 0.00 0.00
20200220065313 44 6 14.0 22.0 0.00 0.00 0.00
20200220064813 44 7 14.0 18.0 0.00 0.00 0.00
20200220064314 44 10 12.0 18.0 0.00 0.00 0.00
20200220063813 44 8 12.0 17.0 0.00 0.00 0.00
20200220063313 44 345 12.0 18.0 0.00 0.00 0.00
20200220062813 44 6 12.0 18.0 0.00 0.00 0.00
20200220062313 44 17 12.0 17.0 0.00 0.00 0.00
20200220061813 45 353 11.0 16.0 0.00 0.00 0.00
20200220061313 44 3 11.0 17.0 0.00 0.00 0.00
20200220060813 45 4 11.0 16.0 0.00 0.00 0.00
20200220060313 45 13 11.0 16.0 0.00 0.00 0.00
20200220055813 44 354 12.0 17.0 0.00 0.00 0.00
20200220055313 45 10 13.0 20.0 0.00 0.00 0.00
20200220054813 45 7 13.0 19.0 0.00 0.00 0.00
20200220054313 44 346 12.0 17.0 0.00 0.00 0.00
20200220053813 45 1 11.0 15.0 0.00 0.00 0.00
20200220053313 45 352 11.0 15.0 0.00 0.00 0.00
20200220052813 45 7 10.0 14.0 0.00 0.00 0.00
20200220052313 44 349 11.0 15.0 0.00 0.00 0.00
20200220051813 45 7 11.0 15.0 0.00 0.00 0.00
20200220051313 45 8 11.0 14.0 0.00 0.00 0.00
20200220050813 45 0 10.0 14.0 0.00 0.00 0.00
20200220050313 45 18 10.0 14.0 0.00 0.00 0.00
20200220045813 45 3 9.0 12.0 0.00 0.00 0.00
20200220045313 45 8 9.0 15.0 0.00 0.00 0.00
20200220044813 45 354 11.0 15.0 0.00 0.00 0.00
20200220044313 45 17 10.0 14.0 0.00 0.00 0.00
20200220043813 46 356 10.0 14.0 0.00 0.00 0.00
20200220043313 46 0 10.0 14.0 0.00 0.00 0.00
20200220042813 46 6 10.0 14.0 0.00 0.00 0.00
20200220042313 46 359 10.0 15.0 0.00 0.00 0.00
20200220041813 46 8 8.0 12.0 0.00 0.00 0.00
20200220041313 47 10 7.0 10.0 0.00 0.00 0.00
20200220040813 47 14 8.0 11.0 0.00 0.00 0.00
20200220040313 47 0 7.0 12.0 0.00 0.00 0.00
20200220035813 47 10 7.0 13.0 0.00 0.00 0.00
20200220035313 47 31 7.0 10.0 0.00 0.00 0.00
20200220034813 47 27 8.0 13.0 0.00 0.00 0.00
20200220034313 47 14 8.0 12.0 0.00 0.00 0.00
20200220033813 47 14 8.0 10.0 0.00 0.00 0.00
20200220033314 47 34 7.0 11.0 0.00 0.00 0.00
20200220032813 47 359 8.0 12.0 0.00 0.00 0.00
20200220032313 47 7 7.0 11.0 0.00 0.00 0.00
20200220031813 47 3 8.0 12.0 0.00 0.00 0.00
20200220031313 47 1 8.0 11.0 0.00 0.00 0.00
20200220030813 47 21 8.0 11.0 0.00 0.00 0.00
20200220030313 47 10 8.0 12.0 0.00 0.00 0.00
20200220025813 47 7 9.0 12.0 0.00 0.00 0.00
20200220025313 48 0 9.0 13.0 0.00 0.00 0.00
20200220024813 48 0 9.0 12.0 0.00 0.00 0.00
20200220024313 48 1 9.0 13.0 0.00 0.00 0.00
20200220023813 47 359 8.0 10.0 0.00 0.00 0.00
20200220023313 48 359 8.0 12.0 0.00 0.00 0.00
20200220022815 48 359 8.0 13.0 0.00 0.00 0.00
20200220022313 48 23 8.0 12.0 0.00 0.00 0.00
20200220021813 48 1 8.0 11.0 0.00 0.00 0.00
20200220021313 48 15 8.0 11.0 0.00 0.00 0.00
20200220020813 48 11 9.0 12.0 0.00 0.00 0.00
20200220020313 48 15 9.0 11.0 0.00 0.00 0.00
20200220015813 48 7 9.0 12.0 0.00 0.00 0.00
20200220015313 48 11 8.0 11.0 0.00 0.00 0.00
20200220014813 49 27 8.0 13.0 0.00 0.00 0.00
20200220014313 49 0 8.0 12.0 0.00 0.00 0.00
20200220013813 49 8 9.0 13.0 0.00 0.00 0.00
20200220013313 49 359 7.0 11.0 0.00 0.00 0.00
20200220012813 48 1 8.0 11.0 0.00 0.00 0.00
20200220012314 49 21 8.0 10.0 0.00 0.00 0.00
20200220011813 49 0 7.0 10.0 0.00 0.00 0.00
20200220011313 49 352 8.0 11.0 0.00 0.00 0.00
20200220010813 49 352 9.0 13.0 0.00 0.00 0.00
20200220010313 49 13 8.0 11.0 0.00 0.00 0.00
20200220005814 50 346 8.0 13.0 0.00 0.00 0.00
20200220005313 50 350 8.0 14.0 0.00 0.00 0.00
20200220004813 50 346 9.0 14.0 0.00 0.00 0.00
20200220004313 50 340 9.0 13.0 0.00 0.00 0.00
20200220003813 50 4 8.0 11.0 0.00 0.00 0.00
20200220003313 49 346 7.0 10.0 0.00 0.00 0.00
20200220002813 50 354 8.0 12.0 0.00 0.00 0.00
20200220002313 50 359 9.0 12.0 0.00 0.00 0.00
20200220001813 50 322 7.0 10.0 0.00 0.00 0.00
20200220001313 50 359 6.0 9.0 0.00 0.00 0.00
20200220000813 50 347 7.0 11.0 0.00 0.00 0.00
20200220000313 50 359 7.0 9.0 0.00 0.00 0.00
20200219235813 51 15 7.0 9.0 0.00 0.00 0.00
20200219235313 51 20 8.0 11.0 0.00 0.00 0.00
20200219234813 51 10 8.0 12.0 0.00 0.00 0.00
20200219234313 51 340 6.0 8.0 0.00 0.00 0.00
20200219233813 51 350 6.0 9.0 0.00 0.00 0.00
20200219233313 52 359 7.0 10.0 0.00 0.00 0.00
20200219232813 52 353 8.0 12.0 0.00 0.00 0.00
20200219232313 53 359 8.0 11.0 0.00 0.00 0.00
20200219231813 53 10 7.0 10.0 0.00 0.00 0.00
20200219231313 54 0 8.0 11.0 0.00 0.00 0.00
20200219230813 54 4 9.0 12.0 0.00 0.00 0.00
20200219230313 54 11 8.0 10.0 0.00 0.00 0.00
20200219225813 55 17 8.0 12.0 0.00 0.00 0.00
20200219225313 55 28 8.0 10.0 0.00 0.00 0.00
20200219224814 55 10 8.0 11.0 0.00 0.00 0.00
20200219224313 55 18 9.0 11.0 0.00 0.00 0.00
20200219223813 56 4 8.0 13.0 0.00 0.00 0.00
20200219223313 55 359 8.0 10.0 0.00 0.00 0.00
20200219222813 57 356 7.0 10.0 0.00 0.00 0.00
20200219222313 56 8 10.0 14.0 0.00 0.00 0.00
20200219221813 58 3 8.0 11.0 0.00 0.00 0.00
20200219221313 59 28 8.0 12.0 0.00 0.00 0.00
20200219220813 59 28 8.0 10.0 0.00 0.00 0.00
20200219220313 60 13 6.0 10.0 0.00 0.00 0.00
20200219215813 59 21 7.0 10.0 0.00 0.00 0.00
20200219215313 59 21 6.0 11.0 0.00 0.00 0.00
20200219214815 59 46 7.0 10.0 0.00 0.00 0.00
20200219214313 61 7 6.0 11.0 0.00 0.00 0.00
20200219213813 61 27 4.0 6.0 0.00 0.00 0.00
20200219213314 60 7 5.0 11.0 0.00 0.00 0.00
20200219212816 64 24 1.0 7.0 0.00 0.00 0.00
20200219212313 62 72 4.0 10.0 0.00 0.00 0.00
20200219211813 60 59 4.0 11.0 0.00 0.00 0.00
20200219211313 64 90 3.0 11.0 0.00 0.00 0.00
20200219210813 62 90 4.0 8.0 0.00 0.00 0.00
20200219210313 62 93 4.0 10.0 0.00 0.00 0.00
20200219205813 64 111 2.0 7.0 0.00 0.00 0.00
20200219205313 60 68 3.0 8.0 0.00 0.00 0.00
20200219204813 58 59 6.0 9.0 0.00 0.00 0.00
20200219204313 62 89 5.0 12.0 0.00 0.00 0.00
20200219203814 58 68 5.0 13.0 0.00 0.00 0.00
20200219203313 59 84 5.0 10.0 0.00 0.00 0.00
20200219202813 58 60 7.0 12.0 0.00 0.00 0.00
20200219202313 59 6 3.0 8.0 0.00 0.00 0.00
20200219201813 58 53 6.0 8.0 0.00 0.00 0.00
20200219201313 64 103 2.0 12.0 0.00 0.00 0.00
20200219200814 57 75 6.0 11.0 0.00 0.00 0.00
20200219200314 56 75 9.0 13.0 0.00 0.00 0.00
20200219195813 56 113 8.0 13.0 0.00 0.00 0.00
20200219195313 58 73 4.0 9.0 0.00 0.00 0.00
20200219194813 57 89 6.0 11.0 0.00 0.00 0.00
20200219194313 56 98 6.0 11.0 0.00 0.00 0.00
20200219193813 57 91 7.0 12.0 0.00 0.00 0.00
20200219193313 56 96 6.0 13.0 0.00 0.00 0.00
20200219192813 56 68 6.0 11.0 0.00 0.00 0.00
20200219192313 55 76 7.0 12.0 0.00 0.00 0.00
20200219191813 55 117 7.0 12.0 0.00 0.00 0.00
20200219191313 56 55 7.0 10.0 0.00 0.00 0.00
20200219190815 58 66 3.0 8.0 0.00 0.00 0.00
20200219190313 55 21 7.0 12.0 0.00 0.00 0.00
20200219185813 54 27 7.0 10.0 0.00 0.00 0.00
20200219185313 55 14 7.0 10.0 0.00 0.00 0.00
20200219184813 54 38 7.0 11.0 0.00 0.00 0.00
20200219184313 54 75 6.0 11.0 0.00 0.00 0.00
20200219183813 53 93 5.0 10.0 0.00 0.00 0.00
20200219183313 52 53 7.0 12.0 0.00 0.00 0.00
20200219182813 53 111 7.0 11.0 0.00 0.00 0.00
20200219182313 52 79 7.0 11.0 0.00 0.00 0.00
20200219181813 52 115 7.0 11.0 0.00 0.00 0.00
20200219181313 52 97 6.0 12.0 0.00 0.00 0.00
20200219180813 52 105 5.0 12.0 0.00 0.00 0.00
20200219180313 52 75 8.0 14.0 0.00 0.00 0.00
20200219175813 53 111 4.0 10.0 0.00 0.00 0.00
20200219175313 52 103 7.0 11.0 0.00 0.00 0.00
20200219174813 51 118 7.0 11.0 0.00 0.00 0.00
20200219174313 52 134 5.0 11.0 0.00 0.00 0.00
20200219173813 51 91 8.0 12.0 0.00 0.00 0.00
20200219173313 51 100 7.0 13.0 0.00 0.00 0.00
20200219172813 51 77 7.0 10.0 0.00 0.00 0.00
20200219172313 50 72 8.0 13.0 0.00 0.00 0.00
20200219171813 51 56 4.0 10.0 0.00 0.00 0.00
20200219171313 49 96 6.0 10.0 0.00 0.00 0.00
20200219170813 51 45 3.0 10.0 0.00 0.00 0.00
20200219170313 49 27 6.0 12.0 0.00 0.00 0.00
20200219165817 51 32 4.0 10.0 0.00 0.00 0.00
20200219165314 47 359 9.0 13.0 0.00 0.00 0.00
20200219164813 51 55 4.0 10.0 0.00 0.00 0.00
20200219164313 48 72 4.0 9.0 0.00 0.00 0.00
20200219163814 48 75 4.0 10.0 0.00 0.00 0.00
20200219163313 46 49 7.0 11.0 0.00 0.00 0.00
20200219162815 47 35 6.0 10.0 0.00 0.00 0.00
20200219162313 47 91 5.0 10.0 0.00 0.00 0.00
20200219161813 47 55 5.0 9.0 0.00 0.00 0.00
20200219161313 46 45 6.0 11.0 0.00 0.00 0.00
20200219160813 44 39 8.0 11.0 0.00 0.00 0.00
20200219160313 43 44 8.0 12.0 0.00 0.00 0.00
20200219155813 43 18 9.0 12.0 0.00 0.00 0.00
20200219155313 42 25 8.0 11.0 0.00 0.00 0.00
20200219154813 42 76 9.0 13.0 0.00 0.00 0.00
20200219154313 43 52 9.0 15.0 0.00 0.00 0.00
20200219153813 42 51 9.0 14.0 0.00 0.00 0.00
20200219153313 41 55 9.0 12.0 0.00 0.00 0.00
20200219152813 41 35 9.0 14.0 0.00 0.00 0.00
20200219152313 42 53 7.0 10.0 0.00 0.00 0.00
20200219151813 41 10 9.0 13.0 0.00 0.00 0.00
20200219151314 41 13 9.0 11.0 0.00 0.00 0.00
20200219150814 41 15 8.0 11.0 0.00 0.00 0.00
20200219150313 40 10 8.0 11.0 0.00 0.00 0.00
20200219145814 40 7 8.0 11.0 0.00 0.00 0.00
20200219145313 40 31 7.0 10.0 0.00 0.00 0.00
20200219144813 39 42 8.0 10.0 0.00 0.00 0.00
20200219144314 38 27 7.0 10.0 0.00 0.00 0.00
20200219143814 39 14 7.0 10.0 0.00 0.00 0.00
20200219143314 39 20 7.0 10.0 0.00 0.00 0.00
20200219142813 38 25 8.0 12.0 0.00 0.00 0.00
20200219142313 37 15 8.0 11.0 0.00 0.00 0.00
20200219141814 37 20 8.0 10.0 0.00 0.00 0.00
20200219141314 36 4 7.0 10.0 0.00 0.00 0.00
20200219140814 37 11 7.0 9.0 0.00 0.00 0.00
20200219140314 37 1 5.0 8.0 0.00 0.00 0.00
20200219135814 37 0 6.0 9.0 0.00 0.00 0.00
20200219135314 37 44 5.0 8.0 0.00 0.00 0.00
20200219134814 37 41 4.0 6.0 0.00 0.00 0.00
20200219134314 36 0 0.0 0.0 0.00 0.00 0.00
20200219133814 35 23 2.0 9.0 0.00 0.00 0.00
20200219133314 34 28 6.0 9.0 0.00 0.00 0.00
20200219132814 34 38 4.0 7.0 0.00 0.00 0.00
20200219132314 33 17 6.0 8.0 0.00 0.00 0.00
20200219131814 33 6 6.0 7.0 0.00 0.00 0.00
20200219131314 32 6 6.0 7.0 0.00 0.00 0.00
20200219130814 32 25 6.0 9.0 0.00 0.00 0.00
20200219130314 32 11 6.0 8.0 0.00 0.00 0.00
20200219125814 33 32 7.0 10.0 0.00 0.00 0.00
20200219125314 32 6 6.0 10.0 0.00 0.00 0.00
20200219124814 32 23 6.0 8.0 0.00 0.00 0.00
20200219124314 32 6 5.0 7.0 0.00 0.00 0.00
20200219123814 32 13 5.0 7.0 0.00 0.00 0.00
20200219123314 32 359 4.0 7.0 0.00 0.00 0.00
20200219122814 32 356 3.0 6.0 0.00 0.00 0.00
20200219122314 32 345 1.0 3.0 0.00 0.00 0.00
20200219121814 32 350 3.0 5.0 0.00 0.00 0.00
20200219121315 32 333 0.0 3.0 0.00 0.00 0.00
20200219120814 32 356 0.0 3.0 0.00 0.00 0.00
20200219120314 32 4 3.0 5.0 0.00 0.00 0.00
20200219115814 32 359 5.0 6.0 0.00 0.00 0.00
20200219115314 32 342 3.0 6.0 0.00 0.00 0.00
20200219114814 32 342 3.0 6.0 0.00 0.00 0.00
20200219114314 32 0 3.0 5.0 0.00 0.00 0.00
20200219113814 32 352 4.0 7.0 0.00 0.00 0.00
20200219113314 32 359 6.0 7.0 0.00 0.00 0.00
20200219112814 32 0 6.0 7.0 0.00 0.00 0.00
20200219112314 32 343 5.0 8.0 0.00 0.00 0.00
20200219111814 32 336 6.0 8.0 0.00 0.00 0.00
20200219111314 32 359 5.0 7.0 0.00 0.00 0.00
20200219110814 32 349 5.0 6.0 0.00 0.00 0.00
20200219110314 32 1 5.0 7.0 0.00 0.00 0.00
20200219105814 32 356 6.0 8.0 0.00 0.00 0.00
20200219105314 31 345 5.0 7.0 0.00 0.00 0.00
20200219104814 31 349 5.0 7.0 0.00 0.00 0.00
20200219104314 31 347 6.0 7.0 0.00 0.00 0.00
20200219103814 31 350 5.0 6.0 0.00 0.00 0.00
20200219103314 31 347 5.0 6.0 0.00 0.00 0.00
20200219102816 31 340 5.0 6.0 0.00 0.00 0.00
20200219102315 30 343 5.0 7.0 0.00 0.00 0.00
20200219101814 30 349 6.0 7.0 0.00 0.00 0.00
20200219101314 30 349 5.0 7.0 0.00 0.00 0.00
20200219100814 30 340 5.0 6.0 0.00 0.00 0.00
20200219100314 30 345 5.0 6.0 0.00 0.00 0.00
20200219095814 30 356 5.0 6.0 0.00 0.00 0.00
20200219095314 31 347 5.0 6.0 0.00 0.00 0.00
20200219094814 31 352 5.0 6.0 0.00 0.00 0.00
20200219094317 31 349 4.0 6.0 0.00 0.00 0.00
20200219093814 31 349 5.0 7.0 0.00 0.00 0.00
20200219093314 31 349 5.0 6.0 0.00 0.00 0.00
20200219092814 31 352 2.0 6.0 0.00 0.00 0.00
20200219092314 30 0 0.0 0.0 0.00 0.00 0.00
20200219091315 31 0 0.0 0.0 0.00 0.00 0.00
20200219090814 31 0 0.0 0.0 0.00 0.00 0.00
20200219090314 31 0 0.0 0.0 0.00 0.00 0.00
20200219085814 31 343 1.0 3.0 0.00 0.00 0.00
20200219085314 31 354 4.0 5.0 0.00 0.00 0.00
20200219084814 30 354 5.0 6.0 0.00 0.00 0.00
20200219084314 30 353 5.0 7.0 0.00 0.00 0.00
20200219083815 30 0 0.0 0.0 0.00 0.00 0.00
20200219083314 30 0 0.0 0.0 0.00 0.00 0.00
20200219082814 30 0 0.0 0.0 0.00 0.00 0.00
20200219082315 30 0 0.0 0.0 0.00 0.00 0.00
20200219081814 30 0 0.0 0.0 0.00 0.00 0.00
20200219081314 31 0 0.0 0.0 0.00 0.00 0.00
20200219080814 32 0 0.0 0.0 0.00 0.00 0.00
20200219080314 33 0 0.0 0.0 0.00 0.00 0.00
20200219075814 32 0 0.0 0.0 0.00 0.00 0.00
20200219075314 33 0 0.0 0.0 0.00 0.00 0.00
20200219074814 33 342 0.0 3.0 0.00 0.00 0.00
20200219074314 33 6 2.0 5.0 0.00 0.00 0.00
20200219073814 33 352 3.0 5.0 0.00 0.00 0.00
20200219073314 34 1 3.0 5.0 0.00 0.00 0.00